Time;durP1;ratioP1;P1;durP2;ratioP2;P2;SDS_P1;SDS_P2;PMS_P1;PMS_P2;Temp;Humidity;BMP_temperature;BMP_pressure;BME280_temperature;BME280_humidity;BME280_pressure;Samples;Min_cycle;Max_cycle;Signal;HPM_P1;HPM_P2
2021/11/25 00:02:07;;;;;;;5.35;2.45;;;14.80;99.90;;;;;;5104661;28;20051;-59
2021/11/25 00:04:35;;;;;;;3.65;2.42;;;14.90;99.90;;;;;;5114613;28;20115;-59
2021/11/25 00:07:03;;;;;;;3.95;1.92;;;14.80;99.90;;;;;;5114429;28;20036;-59
2021/11/25 00:09:31;;;;;;;4.20;2.20;;;14.70;99.90;;;;;;5086572;28;20071;-60
2021/11/25 00:11:58;;;;;;;3.47;2.22;;;14.70;99.90;;;;;;5093924;28;20513;-60
2021/11/25 00:14:26;;;;;;;4.68;1.88;;;14.70;99.90;;;;;;5115616;28;20097;-60
2021/11/25 00:16:54;;;;;;;7.25;2.35;;;14.60;99.90;;;;;;5111959;28;20036;-60
2021/11/25 00:19:21;;;;;;;3.78;2.33;;;14.50;99.90;;;;;;5111349;28;20042;-60
2021/11/25 00:21:49;;;;;;;4.53;2.50;;;14.50;99.90;;;;;;5110511;28;20040;-59
2021/11/25 00:24:17;;;;;;;4.97;2.97;;;14.40;99.90;;;;;;5108485;28;20040;-60
2021/11/25 00:26:44;;;;;;;3.92;1.85;;;14.30;99.90;;;;;;5112729;28;20078;-60
2021/11/25 00:29:12;;;;;;;4.30;2.38;;;14.40;99.90;;;;;;5111988;28;20032;-60
2021/11/25 00:31:39;;;;;;;3.13;1.90;;;14.40;99.90;;;;;;5107892;28;20127;-60
2021/11/25 00:34:07;;;;;;;5.47;1.88;;;14.40;99.90;;;;;;5105234;27;20043;-60
2021/11/25 00:36:37;;;;;;;3.15;2.00;;;14.40;99.90;;;;;;5114664;28;20496;-59
2021/11/25 00:39:05;;;;;;;3.05;1.60;;;14.40;99.90;;;;;;5108649;28;20110;-59
2021/11/25 00:41:32;;;;;;;3.00;1.65;;;14.40;99.90;;;;;;5092503;28;20504;-60
2021/11/25 00:44:00;;;;;;;4.93;2.10;;;14.40;99.90;;;;;;5115860;28;20039;-59
2021/11/25 00:46:27;;;;;;;3.03;1.70;;;14.40;99.90;;;;;;5102484;28;20031;-60
2021/11/25 00:48:55;;;;;;;4.40;1.90;;;14.40;99.90;;;;;;5103035;28;20040;-59
2021/11/25 00:51:23;;;;;;;3.17;1.75;;;14.40;99.90;;;;;;5106667;28;20067;-60
2021/11/25 00:53:50;;;;;;;3.35;1.92;;;14.40;99.90;;;;;;5094681;28;20044;-59
2021/11/25 00:56:18;;;;;;;5.40;1.80;;;14.40;99.90;;;;;;5113664;27;20035;-59
2021/11/25 00:58:45;;;;;;;4.35;2.40;;;14.50;99.90;;;;;;5112611;28;20512;-59
2021/11/25 01:01:13;;;;;;;4.13;2.28;;;14.50;99.90;;;;;;5111306;28;20062;-60
2021/11/25 01:03:41;;;;;;;4.75;2.55;;;14.50;99.90;;;;;;5094616;28;20034;-59
2021/11/25 01:06:09;;;;;;;6.38;2.67;;;14.50;99.90;;;;;;5103854;28;20058;-59
2021/11/25 01:08:36;;;;;;;5.72;1.80;;;14.50;99.90;;;;;;5094648;28;20489;-59
2021/11/25 01:11:04;;;;;;;2.95;2.20;;;14.40;99.90;;;;;;5108987;28;20131;-59
2021/11/25 01:13:32;;;;;;;4.95;1.98;;;14.40;99.90;;;;;;5111624;28;20093;-59
2021/11/25 01:16:00;;;;;;;3.20;2.40;;;14.30;99.90;;;;;;5111195;27;20122;-61
2021/11/25 01:18:27;;;;;;;3.55;2.10;;;14.40;99.90;;;;;;5108561;28;20052;-60
2021/11/25 01:20:55;;;;;;;3.55;2.08;;;14.30;99.90;;;;;;5113865;28;20085;-59
2021/11/25 01:23:27;;;;;;;4.63;2.00;;;14.30;99.90;;;;;;5079633;28;20050;-59
2021/11/25 01:25:57;;;;;;;7.25;2.83;;;14.20;99.90;;;;;;5110003;28;20078;-59
2021/11/25 01:28:26;;;;;;;3.88;2.20;;;14.20;99.90;;;;;;5110632;28;20031;-59
2021/11/25 01:30:58;;;;;;;4.13;2.20;;;14.10;99.90;;;;;;5095737;28;20036;-59
2021/11/25 01:33:26;;;;;;;5.00;2.28;;;14.10;99.90;;;;;;5105630;28;20478;-59
2021/11/25 01:35:56;;;;;;;9.18;2.70;;;14.10;99.90;;;;;;5080530;28;20119;-59
2021/11/25 01:38:24;;;;;;;6.07;2.45;;;14.20;99.90;;;;;;5112120;27;20381;-59
2021/11/25 01:40:53;;;;;;;5.32;3.03;;;14.10;99.90;;;;;;5092234;27;20039;-59
2021/11/25 01:43:22;;;;;;;3.40;1.80;;;14.10;99.90;;;;;;5094605;28;20039;-60
2021/11/25 01:45:51;;;;;;;5.80;1.80;;;14.10;99.90;;;;;;5094784;28;20130;-60
2021/11/25 01:48:19;;;;;;;3.88;2.17;;;14.10;99.90;;;;;;5094832;28;20047;-59
2021/11/25 01:50:49;;;;;;;4.72;1.88;;;14.20;99.90;;;;;;5094865;28;20052;-59
2021/11/25 01:53:19;;;;;;;7.05;2.97;;;14.10;99.90;;;;;;5089012;28;20081;-59
2021/11/25 01:55:47;;;;;;;6.57;2.75;;;14.10;99.90;;;;;;5076891;28;20047;-59
2021/11/25 01:58:15;;;;;;;4.40;2.30;;;14.10;99.90;;;;;;5076694;28;20043;-59
2021/11/25 02:00:53;;;;;;;3.38;2.08;;;14.00;99.90;;;;;;5094589;28;20112;-60
2021/11/25 02:03:23;;;;;;;4.47;2.20;;;14.00;99.90;;;;;;5094782;28;20040;-59
2021/11/25 02:05:52;;;;;;;5.50;2.00;;;13.90;99.90;;;;;;5076641;28;20036;-59
2021/11/25 02:08:20;;;;;;;4.43;2.28;;;13.90;99.90;;;;;;5094468;28;20074;-60
2021/11/25 02:10:50;;;;;;;5.30;2.00;;;13.90;99.90;;;;;;5094517;28;20036;-59
2021/11/25 02:13:18;;;;;;;3.78;1.77;;;13.90;99.90;;;;;;5094642;28;20123;-60
2021/11/25 02:15:46;;;;;;;4.88;2.65;;;13.90;99.90;;;;;;5076417;28;20054;-60
2021/11/25 02:18:17;;;;;;;4.45;2.38;;;14.00;99.90;;;;;;5094266;28;20497;-59
2021/11/25 02:20:49;;;;;;;9.82;3.25;;;14.00;99.90;;;;;;5077090;28;20032;-60
2021/11/25 02:23:18;;;;;;;4.40;2.72;;;14.00;99.90;;;;;;5094293;28;20035;-60
2021/11/25 02:25:46;;;;;;;5.72;1.88;;;14.10;99.90;;;;;;5093268;28;20420;-59
2021/11/25 02:28:20;;;;;;;6.95;3.03;;;14.10;99.90;;;;;;5094125;28;20119;-59
2021/11/25 02:30:49;;;;;;;12.07;2.33;;;14.20;99.90;;;;;;5094446;28;20114;-60
2021/11/25 02:33:17;;;;;;;7.72;2.58;;;14.20;99.90;;;;;;5094018;28;20186;-59
2021/11/25 02:35:45;;;;;;;3.47;1.67;;;14.20;99.90;;;;;;5076273;28;20044;-59
2021/11/25 02:38:14;;;;;;;5.68;2.35;;;14.20;99.90;;;;;;5093620;28;20048;-59
2021/11/25 02:40:44;;;;;;;6.57;2.95;;;14.20;99.90;;;;;;5093804;28;20036;-59
2021/11/25 02:43:15;;;;;;;5.55;2.80;;;14.20;99.90;;;;;;5093203;28;20052;-59
2021/11/25 02:45:59;;;;;;;4.38;2.03;;;14.20;99.90;;;;;;5076021;28;20028;-59
2021/11/25 02:48:36;;;;;;;6.53;2.03;;;14.20;99.90;;;;;;5059354;28;20077;-60
2021/11/25 02:51:05;;;;;;;4.03;2.72;;;14.20;99.90;;;;;;5093976;28;20120;-59
2021/11/25 02:53:34;;;;;;;5.57;3.17;;;14.20;99.90;;;;;;5075835;28;20051;-60
2021/11/25 02:56:14;;;;;;;7.75;2.67;;;14.20;99.90;;;;;;5094101;28;20072;-59
2021/11/25 02:58:43;;;;;;;4.22;2.30;;;14.30;99.90;;;;;;5093842;28;20151;-60
2021/11/25 03:01:16;;;;;;;9.32;2.72;;;14.30;99.90;;;;;;5093294;28;20274;-60
2021/11/25 03:03:44;;;;;;;6.15;3.20;;;14.30;99.90;;;;;;5093614;28;20047;-60
2021/11/25 03:06:12;;;;;;;6.43;2.80;;;14.20;99.90;;;;;;5093865;28;20047;-59
2021/11/25 03:08:40;;;;;;;5.43;2.92;;;14.20;99.90;;;;;;5093681;28;20099;-59
2021/11/25 03:11:11;;;;;;;5.40;2.97;;;14.30;99.90;;;;;;5093703;28;20039;-59
2021/11/25 03:13:42;;;;;;;6.10;3.00;;;14.30;99.90;;;;;;5093600;28;20040;-60
2021/11/25 03:16:11;;;;;;;6.57;3.38;;;14.30;99.90;;;;;;5093603;28;20063;-60
2021/11/25 03:18:40;;;;;;;11.63;3.70;;;14.30;99.90;;;;;;5093509;28;20105;-60
2021/11/25 03:21:08;;;;;;;4.53;2.45;;;14.30;99.90;;;;;;5092701;28;20468;-60
2021/11/25 03:23:37;;;;;;;5.68;2.72;;;14.30;99.90;;;;;;5090619;28;20378;-60
2021/11/25 03:26:07;;;;;;;6.45;2.88;;;14.30;99.90;;;;;;5093382;28;20424;-60
2021/11/25 03:28:40;;;;;;;8.23;3.75;;;14.30;99.90;;;;;;5091923;28;20135;-60
2021/11/25 03:31:08;;;;;;;5.45;2.70;;;14.30;99.90;;;;;;5075399;28;20416;-60
2021/11/25 03:33:37;;;;;;;7.70;4.22;;;14.30;99.90;;;;;;5059069;28;20044;-60
2021/11/25 03:36:06;;;;;;;7.07;3.33;;;14.20;99.90;;;;;;5092307;28;20427;-59
2021/11/25 03:38:34;;;;;;;16.05;4.72;;;14.20;99.90;;;;;;5075190;28;20044;-60
2021/11/25 03:41:03;;;;;;;8.10;4.00;;;14.20;99.90;;;;;;5093527;28;20070;-60
2021/11/25 03:43:31;;;;;;;12.93;3.80;;;14.20;99.90;;;;;;5093272;28;20032;-60
2021/11/25 03:45:58;;;;;;;8.63;3.10;;;14.10;99.90;;;;;;5093460;28;20505;-59
2021/11/25 03:48:29;;;;;;;8.35;3.60;;;14.10;99.90;;;;;;5093538;28;20048;-60
2021/11/25 03:51:02;;;;;;;7.88;4.05;;;14.10;99.90;;;;;;5075288;28;20050;-59
2021/11/25 03:53:36;;;;;;;6.88;2.97;;;14.10;99.90;;;;;;5093043;28;20127;-59
2021/11/25 03:56:04;;;;;;;10.57;3.65;;;14.10;99.90;;;;;;5093418;28;20033;-59
2021/11/25 03:58:32;;;;;;;8.90;3.22;;;14.10;99.90;;;;;;5093142;28;20436;-59
2021/11/25 04:01:00;;;;;;;11.20;3.55;;;14.10;99.90;;;;;;5093331;28;20046;-59
2021/11/25 04:03:28;;;;;;;6.60;3.05;;;14.10;99.90;;;;;;5092988;28;20039;-60
2021/11/25 04:05:55;;;;;;;5.00;2.92;;;14.10;99.90;;;;;;5093149;28;20036;-59
2021/11/25 04:08:23;;;;;;;7.13;3.13;;;14.20;99.90;;;;;;5075196;28;20032;-60
2021/11/25 04:10:51;;;;;;;9.80;4.60;;;14.20;99.90;;;;;;5093079;28;20044;-59
2021/11/25 04:13:19;;;;;;;12.70;3.63;;;14.20;99.90;;;;;;5092958;28;20040;-60
2021/11/25 04:15:47;;;;;;;9.38;3.38;;;14.20;99.90;;;;;;5061903;28;20416;-60
2021/11/25 04:18:15;;;;;;;11.93;3.65;;;14.20;99.90;;;;;;5077964;28;20541;-59
2021/11/25 04:20:42;;;;;;;14.30;3.97;;;14.20;99.90;;;;;;5078487;28;20158;-59
2021/11/25 04:23:10;;;;;;;8.48;3.40;;;14.30;99.90;;;;;;5096306;28;20351;-60
2021/11/25 04:25:38;;;;;;;12.45;4.47;;;14.30;99.90;;;;;;5096291;28;20040;-59
2021/11/25 04:28:06;;;;;;;5.18;3.42;;;14.30;99.90;;;;;;5096585;28;20043;-59
2021/11/25 04:35:56;;;;;;;10.25;4.30;;;14.40;99.90;;;;;;5095570;28;20131;-59
2021/11/25 04:38:24;;;;;;;5.20;3.20;;;14.40;99.90;;;;;;5078120;28;20127;-60
2021/11/25 04:40:59;;;;;;;8.38;3.13;;;14.40;99.90;;;;;;5096305;28;20036;-60
2021/11/25 04:43:28;;;;;;;7.60;4.28;;;14.40;99.90;;;;;;5094597;28;20047;-60
2021/11/25 04:45:56;;;;;;;9.00;4.82;;;14.40;99.90;;;;;;5096117;28;20486;-60
2021/11/25 04:48:26;;;;;;;11.50;3.45;;;14.40;99.90;;;;;;5078499;28;20036;-59
2021/11/25 04:50:56;;;;;;;10.82;3.90;;;14.40;99.90;;;;;;5088406;28;20078;-60
2021/11/25 04:53:25;;;;;;;10.20;3.72;;;14.50;99.90;;;;;;5095687;28;20410;-60
2021/11/25 04:55:52;;;;;;;5.22;3.35;;;14.40;99.90;;;;;;5096013;28;20038;-60
2021/11/25 04:58:20;;;;;;;13.32;3.80;;;14.50;99.90;;;;;;5095820;28;20390;-59
2021/11/25 05:00:48;;;;;;;7.85;3.92;;;14.50;99.90;;;;;;5095947;28;20040;-59
2021/11/25 05:03:15;;;;;;;9.05;3.00;;;14.50;99.90;;;;;;5095804;28;20032;-60
2021/11/25 05:05:44;;;;;;;9.60;3.40;;;14.50;99.90;;;;;;5078102;28;20067;-59
2021/11/25 05:08:11;;;;;;;8.52;3.35;;;14.40;99.90;;;;;;5060701;28;20131;-60
2021/11/25 05:10:40;;;;;;;7.55;3.85;;;14.40;99.90;;;;;;5095556;28;20036;-60
2021/11/25 05:13:08;;;;;;;9.07;3.60;;;14.50;99.90;;;;;;5095477;28;20032;-60
2021/11/25 05:15:35;;;;;;;6.82;3.35;;;14.40;99.90;;;;;;5077862;28;20439;-60
2021/11/25 05:18:03;;;;;;;7.32;3.05;;;14.50;99.90;;;;;;5095689;28;20434;-60
2021/11/25 05:20:31;;;;;;;7.50;2.95;;;14.40;99.90;;;;;;5095510;28;20347;-60
2021/11/25 05:22:59;;;;;;;5.45;2.78;;;14.40;99.90;;;;;;5095596;28;20043;-60
2021/11/25 05:25:27;;;;;;;8.40;3.80;;;14.40;99.90;;;;;;5094951;28;20039;-60
2021/11/25 05:27:54;;;;;;;6.50;3.40;;;14.40;99.90;;;;;;5077434;28;20042;-59
2021/11/25 05:30:22;;;;;;;6.38;2.88;;;14.40;99.90;;;;;;5095246;28;20047;-60
2021/11/25 05:32:50;;;;;;;8.98;2.63;;;14.40;99.90;;;;;;5094865;28;20355;-60
2021/11/25 05:35:18;;;;;;;6.28;2.63;;;14.30;99.90;;;;;;5095139;28;20090;-60
2021/11/25 05:37:45;;;;;;;5.45;2.33;;;14.30;99.90;;;;;;5095017;28;20138;-59
2021/11/25 05:40:14;;;;;;;6.68;2.90;;;14.30;99.90;;;;;;5094960;28;20085;-59
2021/11/25 05:42:42;;;;;;;6.70;2.63;;;14.30;99.90;;;;;;5060432;28;20478;-60
2021/11/25 05:45:13;;;;;;;8.63;3.25;;;14.20;99.90;;;;;;5094635;28;20093;-60
2021/11/25 05:47:42;;;;;;;5.78;2.80;;;14.20;99.90;;;;;;5095113;28;20123;-60
2021/11/25 05:50:14;;;;;;;5.40;2.47;;;14.20;99.90;;;;;;5094849;28;20417;-60
2021/11/25 05:52:41;;;;;;;7.45;2.40;;;14.20;99.90;;;;;;5094848;28;20044;-59
2021/11/25 05:55:09;;;;;;;5.10;2.83;;;14.20;99.90;;;;;;5094803;28;20473;-59
2021/11/25 05:57:37;;;;;;;9.73;2.47;;;14.30;99.90;;;;;;5095027;28;20127;-59
2021/11/25 06:00:07;;;;;;;3.70;2.42;;;14.20;99.90;;;;;;5094680;28;20038;-60
2021/11/25 06:02:43;;;;;;;4.20;2.50;;;14.30;99.90;;;;;;5094787;28;20032;-60
2021/11/25 06:05:12;;;;;;;6.85;2.72;;;14.30;99.90;;;;;;5094667;28;20120;-60
2021/11/25 06:07:44;;;;;;;7.90;2.92;;;14.30;99.90;;;;;;5094849;28;20039;-60
2021/11/25 06:10:17;;;;;;;6.15;2.50;;;14.30;99.90;;;;;;5094486;28;20067;-60
2021/11/25 06:12:45;;;;;;;7.07;3.42;;;14.40;99.90;;;;;;5060217;28;20067;-60
2021/11/25 06:15:13;;;;;;;6.47;3.42;;;14.40;99.90;;;;;;5094532;28;20043;-60
2021/11/25 06:17:40;;;;;;;9.85;3.10;;;14.50;99.90;;;;;;5076356;28;20374;-60
2021/11/25 06:20:13;;;;;;;5.55;2.75;;;14.40;99.90;;;;;;5094140;28;20375;-60
2021/11/25 06:22:44;;;;;;;7.15;3.45;;;14.50;99.90;;;;;;5094273;28;20038;-60
2021/11/25 06:25:14;;;;;;;8.32;3.35;;;14.60;99.90;;;;;;5094252;28;20123;-60
2021/11/25 06:27:42;;;;;;;9.00;3.70;;;14.50;99.90;;;;;;5059375;28;20043;-60
2021/11/25 06:30:12;;;;;;;6.32;2.95;;;14.50;99.90;;;;;;5094268;28;20419;-60
2021/11/25 06:32:41;;;;;;;6.80;3.15;;;14.60;99.90;;;;;;5094129;28;20416;-60
2021/11/25 06:35:11;;;;;;;6.93;3.08;;;14.60;99.90;;;;;;5093665;28;20042;-59
2021/11/25 06:37:41;;;;;;;8.25;4.30;;;14.60;99.90;;;;;;5074825;28;20032;-60
2021/11/25 06:40:09;;;;;;;8.98;4.07;;;14.60;99.90;;;;;;5094033;28;20068;-60
2021/11/25 06:42:37;;;;;;;8.25;4.00;;;14.60;99.90;;;;;;5076010;28;20047;-60
2021/11/25 06:45:06;;;;;;;8.38;3.38;;;14.80;99.90;;;;;;5093945;28;20079;-60
2021/11/25 06:47:33;;;;;;;8.40;3.50;;;15.10;99.90;;;;;;5094189;28;20035;-60
2021/11/25 06:50:01;;;;;;;6.35;3.28;;;15.50;99.90;;;;;;5094022;28;20411;-59
2021/11/25 06:52:28;;;;;;;8.35;3.38;;;16.30;99.90;;;;;;5093862;28;20039;-60
2021/11/25 06:54:56;;;;;;;7.15;2.85;;;16.80;99.90;;;;;;5093763;28;20040;-60
2021/11/25 06:57:24;;;;;;;5.47;2.88;;;17.00;99.90;;;;;;5093156;28;20040;-60
2021/11/25 06:59:52;;;;;;;4.55;2.97;;;17.30;99.90;;;;;;5096535;28;20478;-60
2021/11/25 07:02:19;;;;;;;7.90;3.65;;;17.10;99.90;;;;;;5108430;28;20123;-60
2021/11/25 07:04:47;;;;;;;5.25;2.90;;;17.20;99.90;;;;;;5100633;28;20088;-59
2021/11/25 07:07:14;;;;;;;9.45;2.58;;;17.40;99.90;;;;;;5104095;28;20482;-60
2021/11/25 07:09:42;;;;;;;6.47;2.53;;;17.60;99.90;;;;;;5104474;28;20043;-59
2021/11/25 07:12:10;;;;;;;10.73;4.38;;;17.50;99.90;;;;;;5104668;28;20046;-60
2021/11/25 07:14:37;;;;;;;10.52;3.15;;;17.10;99.90;;;;;;5112198;28;20047;-59
2021/11/25 07:17:05;;;;;;;8.40;2.95;;;17.10;99.90;;;;;;5112743;28;20114;-59
2021/11/25 07:19:33;;;;;;;5.80;3.13;;;17.10;99.90;;;;;;5103193;28;20035;-60
2021/11/25 07:22:00;;;;;;;9.30;3.55;;;17.10;99.90;;;;;;5104809;28;20520;-60
2021/11/25 07:24:28;;;;;;;9.50;2.47;;;17.30;99.90;;;;;;5101790;28;20047;-60
2021/11/25 07:26:56;;;;;;;9.13;3.45;;;17.70;99.90;;;;;;5112065;28;20039;-60
2021/11/25 07:29:24;;;;;;;8.00;3.60;;;17.50;99.90;;;;;;5111138;28;20047;-60
2021/11/25 07:31:52;;;;;;;5.63;2.80;;;17.40;99.90;;;;;;5106793;28;20122;-60
2021/11/25 07:34:19;;;;;;;8.40;2.88;;;17.20;99.90;;;;;;5126273;28;20047;-60
2021/11/25 07:36:47;;;;;;;11.93;3.53;;;16.90;99.90;;;;;;5094507;28;20036;-60
2021/11/25 07:39:14;;;;;;;11.55;3.97;;;16.50;99.90;;;;;;5111247;28;20060;-60
2021/11/25 07:41:42;;;;;;;7.25;3.83;;;16.20;99.90;;;;;;5108430;28;20039;-60
2021/11/25 07:44:15;;;;;;;7.70;3.47;;;16.10;99.90;;;;;;5076783;28;20035;-60
2021/11/25 07:46:44;;;;;;;14.95;3.25;;;16.10;99.90;;;;;;5109732;28;20538;-59
2021/11/25 07:49:12;;;;;;;6.82;4.05;;;16.20;99.90;;;;;;5111185;28;20040;-60
2021/11/25 07:51:40;;;;;;;9.82;4.00;;;16.40;99.90;;;;;;5112461;28;20393;-60
2021/11/25 07:54:10;;;;;;;10.18;3.33;;;16.60;99.90;;;;;;5109595;28;20032;-60
2021/11/25 07:56:38;;;;;;;7.05;4.15;;;16.90;99.90;;;;;;5095125;28;20448;-60
2021/11/25 07:59:06;;;;;;;9.68;3.55;;;17.00;99.90;;;;;;5108981;28;20047;-59
2021/11/25 08:01:34;;;;;;;10.07;3.67;;;17.10;99.90;;;;;;5109745;28;20043;-60
2021/11/25 08:04:02;;;;;;;7.70;3.20;;;17.40;99.90;;;;;;5106786;28;20123;-60
2021/11/25 08:06:30;;;;;;;9.77;5.28;;;17.50;99.90;;;;;;5106703;28;20036;-59
2021/11/25 08:08:57;;;;;;;9.85;3.80;;;17.20;99.90;;;;;;5093417;28;20135;-59
2021/11/25 08:11:26;;;;;;;9.07;3.60;;;16.80;99.90;;;;;;5111069;28;20034;-59
2021/11/25 08:13:54;;;;;;;9.48;4.75;;;16.60;99.90;;;;;;5109503;28;20040;-59
2021/11/25 08:16:21;;;;;;;6.40;3.55;;;16.60;99.90;;;;;;5102914;28;20503;-59
2021/11/25 08:18:49;;;;;;;18.65;4.43;;;16.60;99.90;;;;;;5100094;28;20081;-61
2021/11/25 08:21:16;;;;;;;8.45;3.30;;;16.70;99.90;;;;;;5114086;28;20039;-60
2021/11/25 08:23:44;;;;;;;9.40;4.00;;;16.80;99.90;;;;;;5088854;28;20028;-60
2021/11/25 08:26:11;;;;;;;10.20;3.53;;;16.70;99.90;;;;;;5104073;28;20049;-60
2021/11/25 08:28:41;;;;;;;13.10;4.25;;;16.70;99.90;;;;;;5112271;28;20040;-59
2021/11/25 08:31:09;;;;;;;7.25;3.45;;;16.80;99.90;;;;;;4952987;28;20469;-59
2021/11/25 08:33:38;;;;;;;6.93;3.92;;;17.10;99.90;;;;;;4927565;27;20357;-56
2021/11/25 08:36:06;;;;;;;10.60;4.15;;;17.30;99.90;;;;;;4831164;27;20051;-59
2021/11/25 08:38:34;;;;;;;6.95;3.95;;;17.40;99.90;;;;;;5114666;28;20040;-59
2021/11/25 08:41:01;;;;;;;6.03;3.13;;;17.50;99.90;;;;;;5115661;28;20102;-59
2021/11/25 08:43:29;;;;;;;8.60;3.00;;;17.60;99.90;;;;;;5109203;27;20042;-60
2021/11/25 08:45:57;;;;;;;9.82;3.63;;;17.80;99.90;;;;;;5094634;28;20040;-60
2021/11/25 08:48:24;;;;;;;5.40;2.90;;;17.70;99.90;;;;;;5097871;28;20063;-59
2021/11/25 08:50:52;;;;;;;14.75;3.15;;;17.70;99.90;;;;;;5115996;28;20131;-59
2021/11/25 08:53:23;;;;;;;7.10;3.30;;;17.60;99.90;;;;;;5097457;28;20405;-59
2021/11/25 08:55:53;;;;;;;11.20;4.15;;;17.70;99.90;;;;;;5097820;28;20480;-60
2021/11/25 08:58:21;;;;;;;6.68;3.15;;;17.70;99.90;;;;;;5097826;28;20035;-60
2021/11/25 09:00:50;;;;;;;8.15;3.22;;;17.60;99.90;;;;;;5115358;28;20123;-59
2021/11/25 09:03:18;;;;;;;9.10;3.58;;;17.60;99.90;;;;;;5115799;28;20042;-59
2021/11/25 09:05:46;;;;;;;6.40;3.10;;;17.80;99.90;;;;;;5023140;28;20032;-59
2021/11/25 09:08:14;;;;;;;6.40;2.80;;;17.90;99.90;;;;;;5095454;28;20178;-59
2021/11/25 09:10:41;;;;;;;6.97;3.08;;;17.70;99.90;;;;;;5077255;28;20044;-59
2021/11/25 09:13:09;;;;;;;7.40;2.78;;;17.50;99.90;;;;;;5076911;28;20090;-59
2021/11/25 09:15:39;;;;;;;14.98;5.60;;;17.50;99.90;;;;;;5095298;28;20042;-59
2021/11/25 09:18:08;;;;;;;10.50;3.72;;;17.50;99.90;;;;;;5095359;28;20051;-59
2021/11/25 09:20:39;;;;;;;10.82;4.25;;;17.60;99.90;;;;;;5077453;28;20072;-59
2021/11/25 09:23:11;;;;;;;24.95;3.58;;;17.60;99.90;;;;;;5095090;28;20370;-59
2021/11/25 09:25:42;;;;;;;8.23;4.40;;;17.50;99.90;;;;;;5077228;28;20051;-60
2021/11/25 09:28:13;;;;;;;6.07;3.33;;;17.40;99.90;;;;;;5077370;28;20071;-59
2021/11/25 09:30:42;;;;;;;8.82;3.22;;;17.40;99.90;;;;;;5095078;28;20040;-59
2021/11/25 09:33:10;;;;;;;5.38;2.85;;;17.50;99.90;;;;;;5094531;28;20355;-60
2021/11/25 09:35:39;;;;;;;7.60;3.20;;;17.70;99.90;;;;;;5094892;28;20032;-59
2021/11/25 09:38:09;;;;;;;4.78;3.17;;;17.80;99.90;;;;;;5059434;28;20500;-59
2021/11/25 09:40:41;;;;;;;7.03;3.25;;;18.00;99.90;;;;;;5076943;28;20435;-59
2021/11/25 09:43:11;;;;;;;5.28;3.75;;;18.10;99.90;;;;;;5094609;28;20033;-59
2021/11/25 09:45:41;;;;;;;10.48;3.72;;;18.20;99.90;;;;;;5094797;28;20043;-59
2021/11/25 09:48:10;;;;;;;5.72;2.65;;;18.20;99.90;;;;;;5094797;28;20060;-59
2021/11/25 09:50:43;;;;;;;6.40;2.72;;;18.40;99.90;;;;;;5094651;28;20040;-59
2021/11/25 09:53:13;;;;;;;6.32;3.00;;;18.50;99.90;;;;;;5094468;28;20062;-60
2021/11/25 09:55:43;;;;;;;8.15;3.25;;;18.40;99.90;;;;;;5094482;28;20033;-59
2021/11/25 09:58:12;;;;;;;11.82;2.80;;;18.30;99.90;;;;;;5094334;28;20035;-59
2021/11/25 10:00:44;;;;;;;5.25;2.63;;;18.30;99.90;;;;;;5094424;28;20036;-59
2021/11/25 10:03:16;;;;;;;7.07;2.65;;;18.40;99.90;;;;;;5094191;28;20389;-59
2021/11/25 10:05:56;;;;;;;15.38;3.30;;;18.20;99.90;;;;;;5076620;28;20043;-60
2021/11/25 10:08:30;;;;;;;7.57;3.35;;;17.90;99.90;;;;;;5094485;28;20044;-59
2021/11/25 10:11:11;;;;;;;6.53;3.17;;;17.80;99.90;;;;;;5094191;28;20040;-60
2021/11/25 10:13:41;;;;;;;5.07;2.25;;;18.00;99.90;;;;;;5094286;28;20039;-59
2021/11/25 10:16:13;;;;;;;4.65;2.20;;;18.20;99.90;;;;;;5076336;28;20036;-59
2021/11/25 10:18:42;;;;;;;4.38;2.20;;;18.30;99.90;;;;;;5094047;28;20123;-59
2021/11/25 10:21:11;;;;;;;3.63;1.70;;;18.40;99.90;;;;;;5075658;28;20462;-59
2021/11/25 10:23:39;;;;;;;3.63;2.38;;;18.20;99.90;;;;;;5055799;28;20028;-60
2021/11/25 10:26:22;;;;;;;8.00;2.20;;;18.00;99.90;;;;;;5114063;28;20354;-60
2021/11/25 10:28:56;;;;;;;3.92;2.00;;;17.80;99.90;;;;;;5114326;28;20031;-59
2021/11/25 10:31:34;;;;;;;5.20;2.47;;;17.60;99.90;;;;;;5096186;28;20051;-59
2021/11/25 10:34:17;;;;;;;5.28;2.58;;;17.50;99.90;;;;;;5096360;28;20036;-59
2021/11/25 10:37:05;;;;;;;7.38;3.33;;;17.40;99.90;;;;;;5114251;28;20043;-60
2021/11/25 10:42:35;;;;;;;7.68;3.75;;;16.90;99.90;;;;;;5113898;28;20043;-59
2021/11/25 10:45:17;;;;;;;9.55;4.20;;;16.80;99.90;;;;;;5095870;28;20051;-59
2021/11/25 10:48:04;;;;;;;5.80;3.50;;;16.80;99.90;;;;;;5114176;28;20050;-59
2021/11/25 10:50:33;;;;;;;4.80;3.33;;;16.90;99.90;;;;;;5114127;28;20374;-59
2021/11/25 10:53:09;;;;;;;5.18;3.33;;;17.10;99.90;;;;;;5114081;28;20043;-59
2021/11/25 10:55:40;;;;;;;4.80;2.83;;;17.10;99.90;;;;;;5114154;28;20482;-60
2021/11/25 10:58:10;;;;;;;4.28;3.13;;;17.20;99.90;;;;;;5113965;28;20465;-60
2021/11/25 11:00:40;;;;;;;7.95;3.67;;;17.20;99.90;;;;;;5113753;28;20084;-59
2021/11/25 11:03:26;;;;;;;5.05;2.72;;;17.30;99.90;;;;;;5088909;28;20056;-60
2021/11/25 11:06:01;;;;;;;5.90;2.95;;;17.40;99.90;;;;;;5092321;28;20549;-59
2021/11/25 11:08:28;;;;;;;4.32;2.45;;;17.40;99.90;;;;;;5072958;28;20031;-59
2021/11/25 11:11:03;;;;;;;9.68;7.40;;;17.40;99.90;;;;;;5110923;28;20122;-59
2021/11/25 11:13:46;;;;;;;6.45;4.10;;;17.50;99.90;;;;;;5099530;28;20031;-60
2021/11/25 11:18:57;;;;;;;3.30;2.20;;;17.50;99.90;;;;;;5103601;28;20036;-59
2021/11/25 11:21:35;;;;;;;4.28;2.45;;;17.50;99.90;;;;;;5107420;28;20066;-59
2021/11/25 11:24:05;;;;;;;14.23;4.57;;;17.50;99.90;;;;;;5106796;28;20039;-61
2021/11/25 11:26:42;;;;;;;8.68;2.47;;;17.60;99.90;;;;;;5095886;28;20086;-62
2021/11/25 11:29:11;;;;;;;6.25;2.88;;;17.60;99.90;;;;;;5080553;28;20040;-66
2021/11/25 11:31:40;;;;;;;5.53;2.85;;;17.60;99.90;;;;;;5109700;28;20100;-71
2021/11/25 11:34:09;;;;;;;6.55;4.40;;;17.60;99.90;;;;;;5098075;28;20034;-63
2021/11/25 11:36:40;;;;;;;6.32;3.63;;;17.60;99.90;;;;;;5105376;28;20508;-63
2021/11/25 11:39:10;;;;;;;5.38;3.58;;;17.60;99.90;;;;;;5067592;28;20044;-63
2021/11/25 11:41:41;;;;;;;5.82;4.07;;;17.50;99.90;;;;;;5077033;28;20089;-62
2021/11/25 11:44:10;;;;;;;5.65;4.18;;;17.40;99.90;;;;;;5079563;28;20040;-63
2021/11/25 11:46:39;;;;;;;8.20;3.70;;;17.40;99.90;;;;;;5096119;28;20070;-62
2021/11/25 11:49:08;;;;;;;7.57;4.20;;;17.30;99.90;;;;;;5108263;28;20039;-63
2021/11/25 11:51:36;;;;;;;6.78;3.58;;;17.20;99.90;;;;;;5092647;28;20346;-62
2021/11/25 11:54:17;;;;;;;12.02;5.28;;;17.10;99.90;;;;;;5112123;28;20114;-61
2021/11/25 11:56:46;;;;;;;7.55;3.58;;;17.10;99.90;;;;;;5095533;28;20043;-62
2021/11/25 11:59:16;;;;;;;9.30;4.80;;;17.10;99.90;;;;;;5094534;28;20528;-62
2021/11/25 12:01:51;;;;;;;8.15;3.75;;;17.10;99.90;;;;;;5100774;28;20040;-62
2021/11/25 12:04:22;;;;;;;16.35;4.53;;;17.10;99.90;;;;;;5078414;28;20036;-63
2021/11/25 12:06:52;;;;;;;15.38;5.28;;;17.10;99.90;;;;;;5091677;28;20028;-63
2021/11/25 12:09:22;;;;;;;7.55;3.88;;;17.20;99.90;;;;;;5108839;28;20085;-66
2021/11/25 12:12:10;;;;;;;10.02;3.67;;;17.20;99.90;;;;;;5092366;28;20361;-63
2021/11/25 12:14:57;;;;;;;9.25;3.55;;;17.30;99.90;;;;;;5105839;28;20039;-63
2021/11/25 12:17:35;;;;;;;7.45;3.70;;;17.20;99.90;;;;;;5112890;28;20404;-63
2021/11/25 12:20:40;;;;;;;9.70;3.28;;;17.20;99.90;;;;;;5117132;27;20039;-63
2021/11/25 12:23:08;;;;;;;13.98;3.47;;;17.10;99.90;;;;;;5029966;28;20071;-63
2021/11/25 12:25:41;;;;;;;6.78;3.63;;;17.10;99.90;;;;;;5108432;27;20103;-63
2021/11/25 12:28:29;;;;;;;14.02;4.57;;;17.10;99.90;;;;;;5106948;28;20090;-64
2021/11/25 12:33:47;;;;;;;11.55;4.93;;;17.00;99.90;;;;;;5113999;27;20035;-64
2021/11/25 12:36:36;;;;;;;9.88;4.68;;;17.00;99.90;;;;;;5114114;28;20067;-63
2021/11/25 12:39:25;;;;;;;7.70;4.45;;;17.10;99.90;;;;;;5110863;28;20123;-63
2021/11/25 12:41:53;;;;;;;12.45;7.50;;;17.20;99.90;;;;;;5076547;28;20036;-62
2021/11/25 12:44:21;;;;;;;6.57;3.95;;;17.20;99.90;;;;;;5111037;28;20039;-62
2021/11/25 12:46:48;;;;;;;9.73;4.18;;;17.20;99.90;;;;;;5107716;28;20572;-62
2021/11/25 12:49:17;;;;;;;6.35;3.97;;;17.30;99.90;;;;;;5112241;28;20032;-63
2021/11/25 12:51:44;;;;;;;7.70;4.93;;;17.30;99.90;;;;;;5108965;28;20378;-62
2021/11/25 12:54:18;;;;;;;9.05;4.13;;;17.30;99.90;;;;;;5101591;27;20039;-62
2021/11/25 12:56:46;;;;;;;8.57;4.10;;;17.40;99.90;;;;;;5109430;27;20400;-62
2021/11/25 12:59:16;;;;;;;7.05;3.85;;;17.30;99.90;;;;;;5106370;28;20432;-63
2021/11/25 13:01:46;;;;;;;9.00;4.35;;;17.30;99.90;;;;;;5093311;28;20100;-62
2021/11/25 13:04:18;;;;;;;9.93;5.00;;;17.30;99.90;;;;;;5095078;27;20424;-62
2021/11/25 13:06:54;;;;;;;9.70;4.32;;;17.30;99.90;;;;;;5102931;28;20054;-62
2021/11/25 13:09:27;;;;;;;7.45;4.70;;;17.30;99.90;;;;;;5093631;28;20032;-63
2021/11/25 13:11:57;;;;;;;7.18;4.07;;;17.30;99.90;;;;;;5103366;28;20468;-63
2021/11/25 13:14:27;;;;;;;8.30;4.68;;;17.20;99.90;;;;;;5090599;28;20040;-62